Time;durP1;ratioP1;P1;durP2;ratioP2;P2;SDS_P1;SDS_P2;PMS_P1;PMS_P2;Temp;Humidity;BMP_temperature;BMP_pressure;BME280_temperature;BME280_humidity;BME280_pressure;Samples;Min_cycle;Max_cycle;Signal;HPM_P1;HPM_P2
2022/11/22 08:35:05;;;;;;;;;1.00;0.00;;;;;19.16;39.60;98980.41;5059280;28;45469;-56
2022/11/22 08:37:31;;;;;;;;;1.00;0.00;;;;;19.20;39.48;98982.81;5061739;28;45455;-56
2022/11/22 08:39:56;;;;;;;;;0.00;0.00;;;;;19.21;39.84;98990.56;5060474;28;45495;-56
2022/11/22 08:42:22;;;;;;;;;0.00;0.00;;;;;19.26;39.58;98998.91;5059037;28;45434;-55
2022/11/22 08:44:47;;;;;;;;;1.00;0.00;;;;;19.26;39.55;98987.56;5060111;28;45750;-56
2022/11/22 08:47:15;;;;;;;;;0.00;0.00;;;;;19.30;39.80;99002.94;5060686;28;45315;-55
2022/11/22 08:49:40;;;;;;;;;0.00;0.00;;;;;19.32;39.67;98997.59;5059013;28;45252;-54
2022/11/22 08:52:05;;;;;;;;;0.00;0.00;;;;;19.33;39.38;99001.88;5059203;28;59016;-55
2022/11/22 08:54:31;;;;;;;;;0.00;0.00;;;;;19.33;39.68;98996.63;5059190;28;45296;-55
2022/11/22 08:56:56;;;;;;;;;1.00;0.00;;;;;19.36;39.74;98993.75;5059254;28;45482;-54
2022/11/22 08:59:21;;;;;;;;;0.00;0.00;;;;;19.36;39.33;99000.81;5059622;28;50861;-55
2022/11/22 09:01:47;;;;;;;;;0.00;0.00;;;;;19.36;39.29;98999.00;5071785;28;45409;-56
2022/11/22 09:04:12;;;;;;;;;0.00;0.00;;;;;19.37;39.12;98999.84;5067279;28;45291;-54
2022/11/22 09:06:38;;;;;;;;;0.67;0.00;;;;;19.37;39.20;99013.81;5058861;28;58806;-56
2022/11/22 09:09:04;;;;;;;;;0.75;0.00;;;;;19.35;39.51;98999.13;5059179;28;45402;-55
2022/11/22 09:11:29;;;;;;;;;0.00;0.00;;;;;19.35;39.47;99007.84;5059791;28;45528;-56
2022/11/22 09:13:54;;;;;;;;;0.00;0.00;;;;;19.38;39.34;98999.72;5060962;28;45990;-55
2022/11/22 09:16:20;;;;;;;;;0.00;0.00;;;;;19.36;39.61;98999.00;5060084;28;49994;-54
2022/11/22 09:18:46;;;;;;;;;0.00;0.00;;;;;19.40;39.59;99018.81;5060243;28;45390;-55
2022/11/22 09:21:14;;;;;;;;;0.00;0.00;;;;;19.39;39.00;99001.38;5060416;28;45347;-55
2022/11/22 09:23:42;;;;;;;;;0.00;0.00;;;;;19.40;39.19;99000.44;5058851;28;46416;-54
2022/11/22 09:26:13;;;;;;;;;1.00;0.00;;;;;19.39;39.02;99009.28;5059341;28;45350;-56
2022/11/22 09:28:38;;;;;;;;;0.00;0.00;;;;;19.39;39.39;99024.22;5059021;28;45296;-55
2022/11/22 09:31:09;;;;;;;;;0.00;0.00;;;;;19.40;39.04;99034.59;5060768;28;45623;-55
2022/11/22 09:33:38;;;;;;;;;0.00;0.00;;;;;19.42;39.51;99016.06;5073918;28;45532;-56
2022/11/22 09:36:11;;;;;;;;;0.00;0.00;;;;;19.41;39.69;99011.75;5074822;28;45659;-56
2022/11/22 09:38:37;;;;;;;;;0.50;0.00;;;;;19.41;39.20;99028.38;5058816;28;45323;-56
2022/11/22 09:41:14;;;;;;;;;0.00;0.00;;;;;19.41;39.13;99031.00;5058913;28;45585;-56
2022/11/22 09:43:59;;;;;;;;;0.00;0.00;;;;;19.41;39.62;99023.13;5058252;28;45971;-56
2022/11/22 09:46:33;;;;;;;;;0.00;0.00;;;;;19.40;39.11;99026.72;5058771;28;45259;-56
2022/11/22 09:49:50;;;;;;;;;0.00;0.00;;;;;19.41;39.33;99023.13;5059537;28;45248;-57
2022/11/22 09:52:28;;;;;;;;;0.00;0.00;;;;;19.39;39.19;99025.03;5061872;28;44855;-55
2022/11/22 09:55:15;;;;;;;;;1.00;0.00;;;;;19.41;39.23;99027.53;5059251;28;45496;-54
2022/11/22 09:57:46;;;;;;;;;0.50;0.00;;;;;19.40;39.61;99023.25;5057626;28;45471;-55
2022/11/22 10:00:24;;;;;;;;;1.50;0.00;;;;;19.39;39.31;99030.28;5058068;28;45386;-55
2022/11/22 10:03:19;;;;;;;;;3.25;3.00;;;;;19.39;39.26;99035.53;5058806;28;45450;-55
2022/11/22 10:05:57;;;;;;;;;1.50;1.50;;;;;19.40;39.33;99024.09;5067568;28;47192;-54
2022/11/22 10:08:40;;;;;;;;;7.00;3.25;;;;;19.40;39.54;99025.88;5072516;28;45375;-55
2022/11/22 10:11:27;;;;;;;;;4.50;4.25;;;;;19.40;39.69;99036.41;5074314;28;45448;-56
2022/11/22 10:13:59;;;;;;;;;7.25;4.00;;;;;19.40;39.34;99037.22;5070284;28;45208;-55
2022/11/22 10:16:33;;;;;;;;;9.25;8.25;;;;;19.39;39.08;99029.47;5075027;28;46343;-54
2022/11/22 10:19:09;;;;;;;;;5.50;5.50;;;;;19.39;39.59;99034.72;5073273;28;45299;-55
2022/11/22 10:21:34;;;;;;;;;9.50;7.00;;;;;19.36;39.05;99038.41;5080316;28;44716;-56
2022/11/22 10:23:59;;;;;;;;;6.75;6.00;;;;;19.39;39.32;99040.78;5065376;28;45236;-55
2022/11/22 10:26:34;;;;;;;;;6.25;5.00;;;;;19.38;39.67;99039.13;5077255;28;47359;-57
2022/11/22 10:29:11;;;;;;;;;8.25;6.75;;;;;19.37;39.50;99045.34;5070085;28;45329;-55
2022/11/22 10:31:42;;;;;;;;;9.00;7.00;;;;;19.35;39.54;99049.88;5058127;28;45334;-55
2022/11/22 10:34:36;;;;;;;;;8.25;7.00;;;;;19.35;39.09;99044.59;5065480;28;45424;-55
2022/11/22 10:37:11;;;;;;;;;13.75;9.75;;;;;19.36;39.33;99050.72;5075182;28;45417;-55
2022/11/22 10:40:02;;;;;;;;;9.25;6.25;;;;;19.35;39.61;99054.28;5057970;28;45799;-56
2022/11/22 10:42:52;;;;;;;;;9.25;7.25;;;;;19.35;39.47;99055.13;5057367;28;45459;-55
2022/11/22 10:45:28;;;;;;;;;8.75;8.75;;;;;19.35;39.65;99065.63;5057982;28;45479;-55
2022/11/22 10:47:56;;;;;;;;;9.50;8.75;;;;;19.34;39.70;99057.88;5057371;28;46377;-55
2022/11/22 10:50:21;;;;;;;;;8.50;7.00;;;;;19.34;39.64;99056.09;5058196;28;45751;-56
2022/11/22 10:53:00;;;;;;;;;7.75;5.75;;;;;19.33;39.39;99049.19;5059353;28;45346;-54
2022/11/22 10:55:43;;;;;;;;;10.00;7.75;;;;;19.33;39.31;99066.72;5058569;28;45400;-55
2022/11/22 10:58:28;;;;;;;;;8.50;6.25;;;;;19.33;39.56;99072.81;5058263;28;46225;-54
2022/11/22 11:01:16;;;;;;;;;8.00;6.75;;;;;19.31;39.21;99059.78;5058135;28;45350;-54
2022/11/22 11:03:46;;;;;;;;;12.25;7.25;;;;;19.30;39.29;99059.91;5074872;28;45272;-53
2022/11/22 11:06:20;;;;;;;;;8.25;7.00;;;;;19.31;39.46;99059.78;5082728;28;44688;-55
2022/11/22 11:08:51;;;;;;;;;6.25;4.25;;;;;19.29;39.61;99064.31;5064414;28;46648;-55
2022/11/22 11:11:18;;;;;;;;;7.00;5.75;;;;;19.30;39.29;99067.78;5061266;28;45431;-55
2022/11/22 11:13:48;;;;;;;;;6.75;6.00;;;;;19.29;39.61;99066.13;5060268;28;45340;-55
2022/11/22 11:16:18;;;;;;;;;5.00;5.00;;;;;19.30;39.84;99066.00;5060139;28;45318;-54
2022/11/22 11:19:01;;;;;;;;;7.00;5.00;;;;;19.30;39.73;99071.25;5057476;28;46237;-54
2022/11/22 11:21:26;;;;;;;;;6.25;5.25;;;;;19.30;39.26;99078.31;5057616;28;45350;-56
2022/11/22 11:23:52;;;;;;;;;9.33;5.33;;;;;19.29;39.63;99071.38;5070166;28;55268;-55
2022/11/22 11:26:26;;;;;;;;;7.00;5.00;;;;;19.30;39.56;99073.06;5066284;28;47975;-57
2022/11/22 11:29:17;;;;;;;;;9.00;5.50;;;;;19.29;39.72;99066.13;5057142;28;46205;-55
2022/11/22 11:31:44;;;;;;;;;6.50;5.00;;;;;19.29;39.67;99066.94;5056955;28;45411;-56
2022/11/22 11:34:22;;;;;;;;;7.75;4.75;;;;;19.28;39.59;99074.94;5056932;28;45846;-56
2022/11/22 11:36:49;;;;;;;;;8.75;5.00;;;;;19.26;39.49;99075.09;5056901;28;45519;-56
2022/11/22 11:39:28;;;;;;;;;5.00;4.25;;;;;19.27;39.35;99083.78;5056532;28;46112;-56
2022/11/22 11:41:55;;;;;;;;;5.25;5.25;;;;;19.26;39.68;99076.84;5063341;28;45300;-55
2022/11/22 11:44:38;;;;;;;;;6.25;4.50;;;;;19.26;39.60;99061.09;5075345;28;45244;-55
2022/11/22 11:47:04;;;;;;;;;3.25;3.25;;;;;19.26;39.78;99068.97;5064785;28;45216;-55
2022/11/22 11:49:33;;;;;;;;;5.00;5.00;;;;;19.23;39.69;99067.44;5066390;28;45959;-55
2022/11/22 11:52:18;;;;;;;;;3.50;3.50;;;;;19.23;39.68;99066.63;5075165;28;45089;-55
2022/11/22 11:54:45;;;;;;;;;3.50;3.50;;;;;19.22;39.84;99065.75;5075329;28;45406;-54
2022/11/22 11:57:17;;;;;;;;;4.50;4.50;;;;;19.23;39.19;99082.38;5066959;28;45322;-56
2022/11/22 11:59:46;;;;;;;;;5.25;4.00;;;;;19.22;39.65;99078.91;5059226;28;46216;-55
2022/11/22 12:02:18;;;;;;;;;6.00;3.75;;;;;19.22;39.67;99078.06;5057743;28;45852;-55
2022/11/22 12:05:04;;;;;;;;;3.00;2.75;;;;;19.21;39.41;99084.28;5057866;28;45385;-55
2022/11/22 12:07:33;;;;;;;;;6.50;3.25;;;;;19.20;39.20;99085.22;5065474;28;45397;-55
2022/11/22 12:09:58;;;;;;;;;3.00;3.00;;;;;19.20;39.72;99077.34;5075029;28;45299;-54
2022/11/22 12:12:23;;;;;;;;;3.25;3.25;;;;;19.20;39.42;99098.34;5057024;28;45212;-56
2022/11/22 12:15:06;;;;;;;;;4.00;3.00;;;;;19.19;39.59;99107.19;5056373;28;45211;-55
2022/11/22 12:17:35;;;;;;;;;3.50;2.50;;;;;19.19;39.38;99113.25;5056484;28;45320;-56
2022/11/22 12:20:07;;;;;;;;;3.00;3.00;;;;;19.21;39.35;99100.03;5056072;28;45428;-56
2022/11/22 12:22:41;;;;;;;;;4.75;3.00;;;;;19.19;39.76;99107.19;5056251;28;45355;-55
2022/11/22 12:25:15;;;;;;;;;4.00;3.00;;;;;19.19;39.66;99108.00;5056696;28;45443;-55
2022/11/22 12:27:41;;;;;;;;;3.00;2.00;;;;;19.19;39.71;99107.19;5070436;28;45426;-56
2022/11/22 12:30:16;;;;;;;;;6.75;3.00;;;;;19.18;39.37;99102.88;5073835;28;68890;-55
2022/11/22 12:33:09;;;;;;;;;4.25;2.50;;;;;19.17;39.23;99102.06;5056246;28;45919;-55
2022/11/22 12:35:42;;;;;;;;;3.00;3.00;;;;;19.17;39.47;99109.94;5056139;28;45449;-55
2022/11/22 12:38:10;;;;;;;;;1.75;1.75;;;;;19.16;39.40;99109.09;5057140;28;45437;-54
2022/11/22 12:40:41;;;;;;;;;3.25;2.25;;;;;19.17;39.26;99107.31;5056804;28;45434;-54
2022/11/22 12:43:19;;;;;;;;;6.25;2.00;;;;;19.16;39.21;99109.09;5056118;28;45496;-55
2022/11/22 12:45:52;;;;;;;;;2.75;1.00;;;;;19.16;39.23;99109.09;5075803;28;44763;-55
2022/11/22 12:48:33;;;;;;;;;3.00;3.00;;;;;19.18;39.38;99118.66;5067592;28;45260;-55
2022/11/22 12:51:23;;;;;;;;;7.00;2.25;;;;;19.16;39.53;99113.53;5055826;28;46401;-55
2022/11/22 12:53:50;;;;;;;;;3.00;2.00;;;;;19.15;39.50;99110.03;5048362;28;45395;-55
2022/11/22 12:56:44;;;;;;;;;4.25;2.00;;;;;19.13;39.29;99108.50;5059200;28;45488;-55
2022/11/22 12:59:24;;;;;;;;;2.75;2.00;;;;;19.13;39.66;99113.75;5061419;28;45417;-54
2022/11/22 13:02:37;;;;;;;;;2.50;2.00;;;;;19.14;39.73;99111.00;5061290;28;46212;-55
2022/11/22 13:05:05;;;;;;;;;3.75;2.00;;;;;19.13;39.71;99114.56;5054586;28;45783;-55
2022/11/22 13:07:44;;;;;;;;;2.25;2.25;;;;;19.13;39.46;99119.81;5060807;28;45233;-56
2022/11/22 13:10:27;;;;;;;;;5.75;3.00;;;;;19.11;39.81;99113.88;5062275;28;45852;-55
2022/11/22 13:12:56;;;;;;;;;2.00;2.00;;;;;19.12;39.72;99126.06;5070639;28;46178;-55
2022/11/22 13:15:28;;;;;;;;;4.25;2.00;;;;;19.08;39.69;99111.47;5079815;28;45686;-59
2022/11/22 13:17:54;;;;;;;;;2.50;1.50;;;;;19.11;39.39;99115.66;5059773;28;45441;-56
2022/11/22 13:20:33;;;;;;;;;3.25;2.25;;;;;19.11;39.74;99121.75;5059340;28;45265;-55
2022/11/22 13:23:22;;;;;;;;;2.75;2.75;;;;;19.10;39.85;99127.97;5059172;28;46296;-56
2022/11/22 13:26:29;;;;;;;;;1.50;1.50;;;;;19.09;39.64;99123.66;5058664;28;45861;-56
2022/11/22 13:28:55;;;;;;;;;1.75;1.00;;;;;19.09;39.29;99123.66;5048681;28;45435;-55
2022/11/22 13:31:21;;;;;;;;;3.00;2.00;;;;;19.10;39.35;99127.09;5060499;28;45455;-54
2022/11/22 13:33:51;;;;;;;;;2.50;2.50;;;;;19.08;39.72;99129.84;5077267;28;45469;-55
2022/11/22 13:36:25;;;;;;;;;2.50;2.00;;;;;19.08;39.31;99129.00;5085449;28;45229;-56
2022/11/22 13:39:04;;;;;;;;;1.25;1.25;;;;;19.07;39.71;99124.75;5081463;28;44784;-54
2022/11/22 13:41:32;;;;;;;;;3.00;2.00;;;;;19.07;39.72;99133.44;5080095;28;44825;-55
2022/11/22 13:44:23;;;;;;;;;2.25;1.25;;;;;19.07;39.86;99133.44;5064860;28;45344;-55
2022/11/22 13:46:48;;;;;;;;;2.50;1.00;;;;;19.06;39.44;99123.06;5058429;28;45309;-55
2022/11/22 13:49:27;;;;;;;;;2.00;2.00;;;;;19.06;39.37;99120.44;5058499;28;45325;-55
2022/11/22 13:51:55;;;;;;;;;1.25;1.00;;;;;19.03;39.57;99134.63;5060048;28;45231;-55
2022/11/22 13:54:38;;;;;;;;;1.25;1.00;;;;;19.05;39.77;99137.97;5058207;28;46138;-55
2022/11/22 13:57:05;;;;;;;;;1.50;1.25;;;;;19.04;39.87;99127.59;5058303;28;46012;-56
2022/11/22 13:59:30;;;;;;;;;0.25;0.25;;;;;19.04;39.43;99120.53;5058819;28;45313;-55
2022/11/22 14:01:59;;;;;;;;;3.00;2.00;;;;;19.04;39.49;99123.16;5058319;28;45572;-55
2022/11/22 14:04:25;;;;;;;;;2.00;1.00;;;;;19.04;39.64;99120.53;5057096;28;46361;-54
2022/11/22 14:06:52;;;;;;;;;1.50;1.50;;;;;19.04;39.36;99124.97;5057660;28;45739;-55
2022/11/22 14:09:31;;;;;;;;;1.50;1.50;;;;;19.03;39.80;99124.09;5058124;28;45517;-54
2022/11/22 14:12:21;;;;;;;;;1.00;1.00;;;;;19.03;39.41;99123.28;5058250;28;45219;-56
2022/11/22 14:15:05;;;;;;;;;1.00;1.00;;;;;19.03;39.61;99107.53;5057936;28;46109;-55
2022/11/22 14:17:51;;;;;;;;;0.00;0.00;;;;;19.01;39.69;99105.03;5058180;28;45397;-55
2022/11/22 14:20:46;;;;;;;;;4.00;1.25;;;;;19.01;39.79;99115.53;5058420;28;45297;-55
2022/11/22 14:23:36;;;;;;;;;2.25;0.00;;;;;19.00;39.67;99129.63;5058491;28;45243;-55
2022/11/22 14:26:16;;;;;;;;;1.50;1.50;;;;;18.98;39.47;99115.75;5059638;28;46222;-57
2022/11/22 14:29:13;;;;;;;;;5.25;2.00;;;;;18.96;39.92;99118.47;5064810;28;45318;-54
2022/11/22 14:31:39;;;;;;;;;1.50;1.50;;;;;18.98;39.50;99134.13;5078479;28;44694;-54
2022/11/22 14:34:21;;;;;;;;;1.00;1.00;;;;;18.97;39.50;99120.16;5059622;28;45679;-55
2022/11/22 14:37:10;;;;;;;;;1.75;1.00;;;;;18.99;39.87;99120.06;5057886;28;45520;-56
2022/11/22 14:39:44;;;;;;;;;6.00;1.00;;;;;18.97;39.43;99125.41;5058889;28;45754;-56
2022/11/22 14:42:34;;;;;;;;;0.75;0.75;;;;;18.96;40.04;99117.66;5058068;28;45252;-56
2022/11/22 14:45:15;;;;;;;;;1.00;1.00;;;;;18.95;39.91;99134.38;5058002;28;45353;-55
2022/11/22 14:47:45;;;;;;;;;1.75;1.75;;;;;18.94;39.57;99116.94;5058221;28;45886;-54
2022/11/22 14:50:25;;;;;;;;;3.00;1.50;;;;;18.95;39.83;99114.22;5078387;28;45335;-55
2022/11/22 14:52:55;;;;;;;;;3.00;1.50;;;;;18.93;39.46;99112.59;5080770;28;44718;-55
2022/11/22 14:55:26;;;;;;;;;1.00;1.00;;;;;18.94;39.49;99114.31;5073897;28;45304;-54
2022/11/22 14:57:59;;;;;;;;;2.75;1.00;;;;;18.94;39.89;99114.31;5059843;28;45972;-55
2022/11/22 15:00:50;;;;;;;;;1.50;1.00;;;;;18.93;39.92;99109.97;5066608;28;45268;-55
2022/11/22 15:03:42;;;;;;;;;2.00;1.00;;;;;18.90;39.85;99111.06;5073698;28;45280;-55
2022/11/22 15:06:35;;;;;;;;;2.50;1.00;;;;;18.92;39.54;99113.56;5069444;28;45377;-55
2022/11/22 15:09:03;;;;;;;;;1.00;1.00;;;;;18.93;39.76;99115.22;5058068;28;46605;-55
2022/11/22 15:11:53;;;;;;;;;1.00;0.75;;;;;18.92;39.50;99124.06;5063964;28;45707;-55
2022/11/22 15:15:08;;;;;;;;;0.00;0.00;;;;;18.90;39.77;99120.72;5076670;28;44663;-55
2022/11/22 15:17:36;;;;;;;;;1.50;1.50;;;;;18.92;39.42;99124.06;5058264;28;45581;-55
2022/11/22 15:20:03;;;;;;;;;1.25;1.00;;;;;18.91;39.50;99122.38;5057998;28;46112;-55
2022/11/22 15:22:28;;;;;;;;;1.00;1.00;;;;;18.89;39.89;99122.50;5055555;28;45795;-55
2022/11/22 15:24:56;;;;;;;;;1.50;1.50;;;;;18.90;39.46;99128.59;5058504;28;45264;-55
2022/11/22 15:27:25;;;;;;;;;2.00;1.00;;;;;18.89;39.85;99121.69;5076673;28;45500;-55
2022/11/22 15:30:26;;;;;;;;;1.25;1.25;;;;;18.89;39.65;99126.94;5068682;28;46616;-54
2022/11/22 15:32:53;;;;;;;;;0.25;0.25;;;;;18.89;39.73;99129.56;4994904;28;45464;-55
2022/11/22 15:35:29;;;;;;;;;0.50;0.50;;;;;18.88;39.66;99127.88;5044512;28;45344;-55
2022/11/22 15:38:09;;;;;;;;;3.00;0.75;;;;;18.88;39.52;99122.63;5057163;28;45392;-55
2022/11/22 15:40:38;;;;;;;;;5.50;1.00;;;;;18.88;39.92;99130.50;5056853;28;47128;-55
2022/11/22 15:43:09;;;;;;;;;0.00;0.00;;;;;18.88;39.58;99130.50;5056353;28;45284;-54
2022/11/22 15:45:40;;;;;;;;;0.75;0.00;;;;;18.86;39.84;99138.47;5057178;28;45335;-55
2022/11/22 15:48:12;;;;;;;;;2.50;0.50;;;;;18.85;39.32;99140.28;5057134;28;45370;-55
2022/11/22 15:50:38;;;;;;;;;0.50;0.50;;;;;18.86;39.46;99138.47;5056720;28;46964;-55
2022/11/22 15:53:24;;;;;;;;;1.00;1.00;;;;;18.86;40.03;99151.59;5057022;28;45250;-55
2022/11/22 15:56:15;;;;;;;;;2.00;0.00;;;;;18.85;39.90;99149.97;5057253;28;45407;-55
2022/11/22 15:58:45;;;;;;;;;0.50;0.25;;;;;18.84;39.88;99146.47;5057387;28;45365;-53
2022/11/22 16:01:15;;;;;;;;;0.50;0.50;;;;;18.83;39.87;99150.06;5056428;28;46224;-55
2022/11/22 16:03:42;;;;;;;;;0.75;0.75;;;;;18.83;39.96;99150.06;5055438;28;45341;-55
2022/11/22 16:06:17;;;;;;;;;3.25;1.00;;;;;18.83;39.70;99154.47;5057601;28;45231;-56
2022/11/22 16:08:57;;;;;;;;;2.00;0.50;;;;;18.82;39.91;99150.19;5057646;28;45336;-55
2022/11/22 16:11:28;;;;;;;;;2.00;0.00;;;;;18.82;39.76;99158.88;5069344;28;45315;-55
2022/11/22 16:13:53;;;;;;;;;1.25;1.00;;;;;18.82;39.67;99166.75;5082163;28;45034;-55
2022/11/22 16:16:25;;;;;;;;;1.25;0.00;;;;;18.83;39.55;99167.59;5080743;28;45141;-56
2022/11/22 16:18:52;;;;;;;;;0.75;0.75;;;;;18.82;39.55;99163.31;5069604;28;45349;-58
2022/11/22 16:21:27;;;;;;;;;1.00;1.00;;;;;18.82;39.57;99158.88;5058152;28;47480;-56
2022/11/22 16:24:17;;;;;;;;;2.25;0.50;;;;;18.82;39.76;99166.75;5058710;28;45311;-56
2022/11/22 16:26:54;;;;;;;;;0.50;0.00;;;;;18.81;39.54;99167.69;5049307;28;45319;-55
2022/11/22 16:29:35;;;;;;;;;1.00;1.00;;;;;18.77;39.50;99165.41;5062579;28;45422;-55
2022/11/22 16:32:08;;;;;;;;;0.75;0.75;;;;;18.81;40.09;99178.19;5061860;28;46239;-55
2022/11/22 16:34:33;;;;;;;;;0.50;0.00;;;;;18.80;39.72;99173.91;5061525;28;45689;-55
2022/11/22 16:36:59;;;;;;;;;0.00;0.00;;;;;18.80;39.36;99171.28;5062443;28;45420;-55
2022/11/22 16:39:24;;;;;;;;;2.50;0.75;;;;;18.79;39.84;99166.16;5065464;28;45584;-56
2022/11/22 16:41:49;;;;;;;;;1.25;0.25;;;;;18.80;39.58;99165.19;5066745;28;46210;-55
2022/11/22 16:44:16;;;;;;;;;0.00;0.00;;;;;18.79;39.91;99180.13;5067793;28;45384;-55
2022/11/22 16:46:42;;;;;;;;;1.50;0.00;;;;;18.79;39.71;99185.38;5079711;28;44953;-55
2022/11/22 16:49:20;;;;;;;;;2.50;0.00;;;;;18.77;39.61;99182.03;5079528;28;44892;-52
2022/11/22 16:51:47;;;;;;;;;2.00;1.00;;;;;18.78;39.66;99181.06;5079515;28;46176;-55
2022/11/22 16:54:19;;;;;;;;;3.00;1.00;;;;;18.78;39.73;99178.44;5085991;28;45104;-54
2022/11/22 16:56:45;;;;;;;;;0.50;0.50;;;;;18.77;39.86;99176.78;5079369;28;45451;-55
2022/11/22 16:59:14;;;;;;;;;1.75;0.00;;;;;18.78;39.72;99185.47;5067716;28;45596;-53
2022/11/22 17:01:41;;;;;;;;;2.25;1.00;;;;;18.78;39.66;99193.34;5059973;28;45473;-55
2022/11/22 17:04:24;;;;;;;;;1.00;1.00;;;;;18.77;39.60;99191.66;5060330;28;45679;-53
2022/11/22 17:06:49;;;;;;;;;1.00;1.00;;;;;18.77;39.78;99200.41;5060444;28;45219;-55
2022/11/22 17:09:15;;;;;;;;;1.00;1.00;;;;;18.77;40.05;99187.28;5061811;28;45320;-54
2022/11/22 17:11:42;;;;;;;;;0.25;0.25;;;;;18.77;39.83;99191.66;5061798;28;47200;-54
2022/11/22 17:14:12;;;;;;;;;1.00;1.00;;;;;18.74;39.75;99187.50;5064411;28;45805;-55
2022/11/22 17:16:37;;;;;;;;;1.75;1.00;;;;;18.77;40.00;99204.78;5062129;28;45295;-53
2022/11/22 17:19:03;;;;;;;;;2.00;1.00;;;;;18.76;39.98;99206.59;5081050;28;45194;-55
2022/11/22 17:21:30;;;;;;;;;1.33;1.00;;;;;18.79;39.91;99206.38;5070773;28;62553;-55
2022/11/22 17:23:58;;;;;;;;;2.25;1.00;;;;;18.82;39.81;99206.13;5059354;28;45322;-56
2022/11/22 17:26:25;;;;;;;;;0.25;0.25;;;;;18.86;39.92;99211.97;5059512;28;45436;-54
2022/11/22 17:28:51;;;;;;;;;3.00;1.00;;;;;18.93;39.82;99212.38;5059151;28;45442;-55
2022/11/22 17:31:18;;;;;;;;;1.00;1.00;;;;;18.96;39.95;99212.19;5061883;28;45965;-54
2022/11/22 17:33:48;;;;;;;;;1.25;0.00;;;;;19.05;39.73;99215.91;5064733;28;45540;-55
2022/11/22 17:36:27;;;;;;;;;1.00;1.00;;;;;19.10;40.16;99224.25;5066039;28;45508;-56
2022/11/22 17:38:53;;;;;;;;;2.50;1.00;;;;;19.14;40.30;99210.78;5061039;28;45197;-57
2022/11/22 17:41:18;;;;;;;;;2.25;1.00;;;;;19.23;39.74;99221.56;5059219;28;45249;-54
2022/11/22 17:43:43;;;;;;;;;1.00;1.00;;;;;19.28;39.65;99227.31;5059178;28;45361;-57
2022/11/22 17:46:09;;;;;;;;;0.75;0.75;;;;;19.34;39.54;99231.25;5059008;28;45239;-57
2022/11/22 17:48:34;;;;;;;;;1.25;0.75;;;;;19.38;40.13;99235.34;5058722;28;45322;-57
2022/11/22 17:51:07;;;;;;;;;2.00;1.00;;;;;19.43;39.95;99243.69;5058297;28;45905;-56
2022/11/22 17:53:33;;;;;;;;;3.00;2.00;;;;;19.48;39.74;99249.44;5058979;28;45696;-57
2022/11/22 17:55:58;;;;;;;;;0.00;0.00;;;;;19.53;39.55;99243.84;5058964;28;45513;-57
2022/11/22 17:58:24;;;;;;;;;3.00;2.00;;;;;19.59;39.55;99253.88;5058428;28;45466;-57
2022/11/22 18:00:49;;;;;;;;;2.25;2.25;;;;;19.61;39.82;99246.72;5057949;28;46188;-57
2022/11/22 18:03:14;;;;;;;;;3.25;3.25;;;;;19.68;39.54;99260.22;5058306;28;45260;-57
2022/11/22 18:05:40;;;;;;;;;2.00;2.00;;;;;19.71;39.51;99258.19;5058255;28;45246;-58
2022/11/22 18:08:05;;;;;;;;;4.00;4.00;;;;;19.74;39.47;99255.31;5058379;28;45224;-57
2022/11/22 18:10:30;;;;;;;;;4.00;3.33;;;;;19.77;39.52;99252.47;5057357;28;62190;-57
2022/11/22 18:12:56;;;;;;;;;0.50;0.00;;;;;19.83;39.12;99258.19;5057953;28;45417;-57
2022/11/22 18:15:22;;;;;;;;;5.00;3.50;;;;;19.85;39.09;99249.22;5066695;28;45246;-57
2022/11/22 18:17:47;;;;;;;;;8.75;4.25;;;;;19.88;39.15;99253.47;5075900;28;45345;-57
2022/11/22 18:20:13;;;;;;;;;5.50;5.50;;;;;19.91;39.33;99242.69;5079829;28;47156;-57
2022/11/22 18:22:38;;;;;;;;;5.75;5.00;;;;;19.94;39.51;99245.09;5079119;28;45343;-56
2022/11/22 18:25:04;;;;;;;;;10.00;7.00;;;;;19.98;39.05;99251.78;5079321;28;44694;-58
2022/11/22 18:27:32;;;;;;;;;6.25;5.50;;;;;19.99;39.16;99239.47;5078198;28;45577;-57
2022/11/22 18:29:58;;;;;;;;;6.00;5.50;;;;;20.03;39.52;99246.16;5076956;28;46078;-59
2022/11/22 18:32:23;;;;;;;;;8.00;5.00;;;;;20.03;39.50;99239.09;5060175;28;45335;-56
2022/11/22 18:34:48;;;;;;;;;7.75;5.00;;;;;20.08;39.04;99244.84;5059090;28;56502;-56
2022/11/22 18:37:14;;;;;;;;;6.00;5.00;;;;;20.07;39.38;99240.53;5060732;28;45539;-54
2022/11/22 18:39:39;;;;;;;;;6.50;5.00;;;;;20.11;39.15;99232.41;5066331;28;46178;-56
2022/11/22 18:42:07;;;;;;;;;5.00;3.00;;;;;20.14;39.15;99245.31;5066216;28;44634;-56
2022/11/22 18:44:33;;;;;;;;;4.00;4.00;;;;;20.17;39.55;99240.66;5062501;28;45369;-56
2022/11/22 18:46:58;;;;;;;;;3.25;3.25;;;;;20.19;39.32;99243.97;5059504;28;45525;-55
2022/11/22 18:49:23;;;;;;;;;5.25;3.50;;;;;20.21;39.50;99246.50;5057273;28;47574;-56
2022/11/22 18:51:49;;;;;;;;;6.00;4.50;;;;;20.19;38.94;99243.97;5056221;28;45375;-57
2022/11/22 18:54:14;;;;;;;;;5.00;3.00;;;;;20.24;39.22;99256.78;5056202;28;56267;-54
2022/11/22 18:56:40;;;;;;;;;4.75;4.00;;;;;20.28;39.36;99263.47;5055445;28;45836;-57
2022/11/22 18:59:06;;;;;;;;;4.25;3.00;;;;;20.31;39.46;99265.00;5056100;28;46417;-56
2022/11/22 19:01:35;;;;;;;;;3.25;3.00;;;;;20.30;39.06;99261.56;5056738;28;45798;-55
2022/11/22 19:04:01;;;;;;;;;4.25;4.25;;;;;20.34;38.80;99270.88;5059247;28;45356;-56
2022/11/22 19:06:27;;;;;;;;;4.25;4.00;;;;;20.36;39.38;99282.09;5060991;28;45638;-54
2022/11/22 19:08:52;;;;;;;;;4.00;3.75;;;;;20.38;38.72;99267.03;5060760;28;46121;-56
2022/11/22 19:11:17;;;;;;;;;5.00;3.67;;;;;20.43;39.34;99276.38;5072447;28;57074;-57
2022/11/22 19:13:43;;;;;;;;;3.75;3.25;;;;;20.47;38.66;99268.09;5073733;28;45270;-51
2022/11/22 19:16:14;;;;;;;;;7.00;4.00;;;;;20.48;38.65;99272.41;5057918;28;45470;-56
2022/11/22 19:18:40;;;;;;;;;7.00;6.25;;;;;20.52;39.35;99273.00;5056504;28;46167;-54
2022/11/22 19:21:18;;;;;;;;;6.50;5.50;;;;;20.52;38.69;99286.97;5056545;28;45293;-57
2022/11/22 19:23:43;;;;;;;;;7.25;5.25;;;;;20.51;39.04;99280.03;5056198;28;45782;-57
2022/11/22 19:26:11;;;;;;;;;6.25;4.50;;;;;20.55;39.15;99288.56;5056395;28;45355;-58
2022/11/22 19:28:37;;;;;;;;;8.75;5.75;;;;;20.57;39.04;99293.69;5065791;28;46180;-58
2022/11/22 19:31:08;;;;;;;;;6.75;5.00;;;;;20.57;39.09;99294.50;5076258;28;45178;-57
2022/11/22 19:33:35;;;;;;;;;7.25;5.25;;;;;20.58;38.96;99295.38;5078722;28;44720;-54
2022/11/22 19:36:08;;;;;;;;;7.50;5.00;;;;;20.58;38.58;99296.19;5063087;28;45393;-57
2022/11/22 19:38:34;;;;;;;;;6.25;6.25;;;;;20.51;38.41;99282.69;5057076;28;47550;-55
2022/11/22 19:40:59;;;;;;;;;9.00;5.25;;;;;20.59;38.99;99297.03;5055998;28;45327;-55
2022/11/22 19:43:25;;;;;;;;;8.75;6.50;;;;;20.59;38.98;99291.78;5013607;28;1219635;-55
2022/11/22 19:45:50;;;;;;;;;6.75;6.75;;;;;20.58;38.91;99304.09;5057391;28;45299;-52
2022/11/22 19:48:17;;;;;;;;;11.00;8.00;;;;;20.48;38.70;99284.72;5056497;28;45390;-49
2022/11/22 19:50:43;;;;;;;;;6.00;6.00;;;;;20.55;38.41;99304.34;5063571;28;45787;-54
2022/11/22 19:53:09;;;;;;;;;9.00;6.50;;;;;20.47;38.88;99299.69;5063998;28;45556;-52
2022/11/22 19:55:38;;;;;;;;;9.00;6.25;;;;;20.55;38.97;99314.88;5056771;28;45613;-54
2022/11/22 19:58:05;;;;;;;;;5.00;4.00;;;;;20.53;38.64;99314.16;5056298;28;46663;-52
2022/11/22 20:00:31;;;;;;;;;7.00;6.00;;;;;20.49;38.31;99313.56;5056534;28;45906;-55
2022/11/22 20:02:58;;;;;;;;;5.00;4.25;;;;;20.50;38.79;99317.03;5055132;28;45445;-51
2022/11/22 20:05:24;;;;;;;;;6.75;4.75;;;;;20.54;38.55;99323.72;5057024;28;45280;-53
2022/11/22 20:07:49;;;;;;;;;4.00;4.00;;;;;20.49;38.77;99315.34;5055371;28;47733;-55
2022/11/22 20:10:15;;;;;;;;;7.50;5.25;;;;;20.52;38.96;99334.34;5054913;28;45440;-57
2022/11/22 20:12:42;;;;;;;;;5.00;4.00;;;;;20.53;38.85;99327.31;5055044;28;45335;-54
2022/11/22 20:15:08;;;;;;;;;8.25;5.25;;;;;20.53;38.43;99329.94;5056242;28;45604;-55
2022/11/22 20:17:35;;;;;;;;;7.00;4.50;;;;;20.49;38.40;99325.88;5055959;28;46047;-54
2022/11/22 20:20:02;;;;;;;;;6.25;5.00;;;;;20.53;38.59;99345.75;5056057;28;45939;-56
2022/11/22 20:22:28;;;;;;;;;5.50;5.00;;;;;20.53;39.07;99349.19;5056109;28;45260;-56
2022/11/22 20:24:53;;;;;;;;;4.75;4.75;;;;;20.54;38.48;99350.06;5055307;28;45258;-57
2022/11/22 20:27:19;;;;;;;;;4.50;4.00;;;;;20.52;38.50;99344.06;5056144;28;46290;-57
2022/11/22 20:29:45;;;;;;;;;5.50;5.00;;;;;20.54;38.64;99355.31;5056576;28;45374;-57
2022/11/22 20:32:11;;;;;;;;;4.75;4.75;;;;;20.49;38.38;99349.56;5057521;28;45445;-56